Strona główna
METAR-TAF:

METAR-TAF

Lotnisko :

Groote Eylandt, Australia

Szerokość geograficzna: 13-58-30S, Długość geograficzna: 136-27-36E, wysokość: 16 m

Aktualna obserwacja pogody

Raport powstał 1 godzina i 15 minut temu, godzina 04:00 UTC
Wiatr 9 kt od zachodnio-północny zachód
Temperatura 35°C
Wilgotność 47%
Ciśnienie 1008 hPa
Widzialność 10 km lub więcej

METAR: YGTE 070400Z AUTO 29009KT 9999 // NCD 35/22 Q1008

czas: 14:45 (05:15 UTC)


TAF: brakujący

Obserwacja i prognoza pogody dla ponad 4000 lotnisk (raport METAR i TAF).

Dostępne stacje oznaczono żółtymi i czerwonymi punktami na mapie.

Najedź kursorem aby zobaczyć nazwę stacji.

Kliknij aby zobaczyć obserwacje i prognozy pogody.

Aby zmienić mapę: kliknij na zielony przycisk z czarnym krzyżykiem, aby powiększyć; na zielony przycisk z myślnikiem, aby pomniejszyć; na zielone strzałki, aby przejść do map sąsiednich.


METAR-TAF: